Time;durP1;ratioP1;P1;durP2;ratioP2;P2;SDS_P1;SDS_P2;PMS_P1;PMS_P2;Temp;Humidity;BMP_temperature;BMP_pressure;BME280_temperature;BME280_humidity;BME280_pressure;Samples;Min_cycle;Max_cycle;Signal;HPM_P1;HPM_P2
2021/03/23 00:00:37;;;;;;;26.30;11.57;;;;;;;;;;5061660;28;37737;-79
2021/03/23 00:03:21;;;;;;;24.80;10.90;;;;;;;;;;5058681;28;37537;-78
2021/03/23 00:05:47;;;;;;;24.00;11.13;;;;;;;;;;5058678;28;37393;-78
2021/03/23 00:08:22;;;;;;;27.47;11.50;;;;;;;;;;5061960;28;35955;-78
2021/03/23 00:10:48;;;;;;;21.90;10.37;;;;;;;;;;5067873;28;37711;-78
2021/03/23 00:13:15;;;;;;;21.50;10.33;;;;;;;;;;5063195;28;38619;-78
2021/03/23 00:15:42;;;;;;;28.23;10.93;;;;;;;;;;5061032;28;37693;-78
2021/03/23 00:18:09;;;;;;;23.53;10.57;;;;;;;;;;5059499;28;37654;-78
2021/03/23 00:20:36;;;;;;;27.23;10.70;;;;;;;;;;5058563;28;39050;-78
2021/03/23 00:23:02;;;;;;;24.13;11.00;;;;;;;;;;5061790;28;38967;-78
2021/03/23 00:25:29;;;;;;;28.97;11.50;;;;;;;;;;5061022;28;37242;-78
2021/03/23 00:27:55;;;;;;;25.83;11.40;;;;;;;;;;5063566;28;36981;-78
2021/03/23 00:30:22;;;;;;;27.37;10.67;;;;;;;;;;5057565;28;37594;-78
2021/03/23 00:32:48;;;;;;;26.60;11.67;;;;;;;;;;5066838;28;39493;-78
2021/03/23 00:35:15;;;;;;;29.20;11.77;;;;;;;;;;5060779;28;37577;-78
2021/03/23 00:37:42;;;;;;;29.27;12.93;;;;;;;;;;5061923;28;35984;-78
2021/03/23 00:40:10;;;;;;;30.30;12.47;;;;;;;;;;5055834;28;37909;-78
2021/03/23 00:42:36;;;;;;;29.93;12.50;;;;;;;;;;5074108;28;37567;-78
2021/03/23 00:45:04;;;;;;;31.37;12.00;;;;;;;;;;5062947;28;38989;-79
2021/03/23 00:47:30;;;;;;;25.80;13.23;;;;;;;;;;5062830;28;48873;-79
2021/03/23 00:49:56;;;;;;;29.33;13.77;;;;;;;;;;5063446;28;40547;-78
2021/03/23 00:52:23;;;;;;;29.33;13.73;;;;;;;;;;5060933;28;38932;-78
2021/03/23 00:54:52;;;;;;;32.40;15.97;;;;;;;;;;5062996;28;38585;-78
2021/03/23 00:57:19;;;;;;;33.87;16.20;;;;;;;;;;5060792;28;36316;-78
2021/03/23 00:59:46;;;;;;;30.47;15.30;;;;;;;;;;5061343;28;38791;-79
2021/03/23 01:02:12;;;;;;;37.00;16.27;;;;;;;;;;5061697;28;38100;-78
2021/03/23 01:04:39;;;;;;;31.07;14.70;;;;;;;;;;5063954;28;37912;-78
2021/03/23 01:07:05;;;;;;;30.43;16.53;;;;;;;;;;5052598;28;37024;-79
2021/03/23 01:09:31;;;;;;;36.77;18.83;;;;;;;;;;5058928;28;39876;-78
2021/03/23 01:11:58;;;;;;;40.60;18.23;;;;;;;;;;5064803;28;38644;-79
2021/03/23 01:14:24;;;;;;;39.30;19.30;;;;;;;;;;5059027;28;37487;-78
2021/03/23 01:16:51;;;;;;;42.80;20.10;;;;;;;;;;5062018;28;35985;-78
2021/03/23 01:19:17;;;;;;;41.70;19.77;;;;;;;;;;5061058;28;37859;-78
2021/03/23 01:21:43;;;;;;;32.50;18.60;;;;;;;;;;5061386;28;38527;-78
2021/03/23 01:24:10;;;;;;;39.27;19.47;;;;;;;;;;5059551;28;37686;-78
2021/03/23 01:26:36;;;;;;;37.07;18.10;;;;;;;;;;5063425;28;38293;-78
2021/03/23 01:29:02;;;;;;;33.10;17.80;;;;;;;;;;5060298;28;38103;-78
2021/03/23 01:31:29;;;;;;;37.10;17.80;;;;;;;;;;5077671;28;37890;-78
2021/03/23 01:33:55;;;;;;;33.57;17.73;;;;;;;;;;5063595;28;38402;-78
2021/03/23 01:36:22;;;;;;;36.93;16.80;;;;;;;;;;5062319;28;36188;-78
2021/03/23 01:38:48;;;;;;;39.73;18.27;;;;;;;;;;5061388;27;38730;-78
2021/03/23 01:41:14;;;;;;;33.13;18.73;;;;;;;;;;5063749;28;39079;-79
2021/03/23 01:43:41;;;;;;;37.07;19.23;;;;;;;;;;5058658;28;38106;-78
2021/03/23 01:46:26;;;;;;;37.97;19.37;;;;;;;;;;5062888;28;36389;-78
2021/03/23 01:48:52;;;;;;;41.00;21.07;;;;;;;;;;5063461;27;39838;-78
2021/03/23 01:51:19;;;;;;;41.90;20.77;;;;;;;;;;5064100;28;39041;-78
2021/03/23 01:53:47;;;;;;;33.87;19.20;;;;;;;;;;5063922;28;38651;-78
2021/03/23 01:56:15;;;;;;;35.70;18.53;;;;;;;;;;5060447;28;38616;-78
2021/03/23 01:58:44;;;;;;;42.90;20.13;;;;;;;;;;5061138;28;37671;-78
2021/03/23 02:01:12;;;;;;;37.83;20.97;;;;;;;;;;5066717;28;38304;-78
2021/03/23 02:03:38;;;;;;;40.07;19.70;;;;;;;;;;5063809;28;38612;-78
2021/03/23 02:06:05;;;;;;;36.40;20.57;;;;;;;;;;5060821;28;36290;-78
2021/03/23 02:08:32;;;;;;;33.43;19.20;;;;;;;;;;5064263;28;39130;-78
2021/03/23 02:11:00;;;;;;;33.87;19.80;;;;;;;;;;5059287;28;39656;-78
2021/03/23 02:13:27;;;;;;;34.00;18.17;;;;;;;;;;5058713;28;39653;-78
2021/03/23 02:15:54;;;;;;;44.97;22.23;;;;;;;;;;5056766;28;37896;-79
2021/03/23 02:18:24;;;;;;;41.73;21.67;;;;;;;;;;5065867;28;38712;-78
2021/03/23 02:21:05;;;;;;;40.30;20.90;;;;;;;;;;5059033;28;38753;-78
2021/03/23 02:23:51;;;;;;;39.27;21.90;;;;;;;;;;5061874;28;46853;-78
2021/03/23 02:26:20;;;;;;;45.00;19.87;;;;;;;;;;5064052;28;37262;-78
2021/03/23 02:28:52;;;;;;;36.80;21.60;;;;;;;;;;5064377;27;39100;-78
2021/03/23 02:31:22;;;;;;;46.83;24.23;;;;;;;;;;5061819;28;38137;-78
2021/03/23 02:33:49;;;;;;;45.37;22.63;;;;;;;;;;5068854;28;38696;-78
2021/03/23 02:36:16;;;;;;;46.07;22.70;;;;;;;;;;5062999;28;36043;-78
2021/03/23 02:38:42;;;;;;;51.70;23.13;;;;;;;;;;5058150;28;38664;-79
2021/03/23 02:41:09;;;;;;;49.23;22.00;;;;;;;;;;5064532;28;39175;-78
2021/03/23 02:43:35;;;;;;;52.30;25.30;;;;;;;;;;5062417;28;37466;-78
2021/03/23 02:46:01;;;;;;;48.83;23.53;;;;;;;;;;5060197;28;36286;-78
2021/03/23 02:48:28;;;;;;;50.07;25.57;;;;;;;;;;5062429;28;45949;-78
2021/03/23 02:50:55;;;;;;;52.80;24.37;;;;;;;;;;5069977;28;36357;-79
2021/03/23 02:53:22;;;;;;;51.67;23.47;;;;;;;;;;5062641;28;38212;-78
2021/03/23 02:55:48;;;;;;;58.40;27.40;;;;;;;;;;5063838;28;36842;-78
2021/03/23 02:58:15;;;;;;;48.13;25.87;;;;;;;;;;5066213;28;40050;-79
2021/03/23 03:00:42;;;;;;;55.83;28.77;;;;;;;;;;5060047;28;39629;-78
2021/03/23 03:03:09;;;;;;;57.47;29.00;;;;;;;;;;5077693;28;38343;-79
2021/03/23 03:05:35;;;;;;;51.57;25.90;;;;;;;;;;5064927;28;37400;-79
2021/03/23 03:08:01;;;;;;;47.93;24.93;;;;;;;;;;5063516;28;37571;-78
2021/03/23 03:10:28;;;;;;;48.53;26.37;;;;;;;;;;5065975;28;38591;-79
2021/03/23 03:12:54;;;;;;;54.90;27.50;;;;;;;;;;5056229;28;39601;-78
2021/03/23 03:15:21;;;;;;;57.07;27.60;;;;;;;;;;5057886;28;37452;-78
2021/03/23 03:17:47;;;;;;;58.80;29.23;;;;;;;;;;5065124;28;39286;-78
2021/03/23 03:20:15;;;;;;;60.80;32.23;;;;;;;;;;5066946;28;37968;-78
2021/03/23 03:22:41;;;;;;;68.67;33.13;;;;;;;;;;5066023;28;38260;-78
2021/03/23 03:25:09;;;;;;;59.43;32.70;;;;;;;;;;5065119;28;36297;-77
2021/03/23 03:27:35;;;;;;;61.07;32.07;;;;;;;;;;5063698;28;39817;-78
2021/03/23 03:30:02;;;;;;;57.90;30.00;;;;;;;;;;5062301;28;39079;-78
2021/03/23 03:32:28;;;;;;;59.20;29.27;;;;;;;;;;5062528;28;38590;-78
2021/03/23 03:34:54;;;;;;;53.80;29.07;;;;;;;;;;5060330;28;36599;-78
2021/03/23 03:37:21;;;;;;;46.87;25.80;;;;;;;;;;5063824;28;39185;-78
2021/03/23 03:39:47;;;;;;;54.13;26.43;;;;;;;;;;5063710;28;37295;-78
2021/03/23 03:42:13;;;;;;;54.40;28.93;;;;;;;;;;5068149;28;38647;-78
2021/03/23 03:44:40;;;;;;;47.47;26.33;;;;;;;;;;5063355;28;37159;-78
2021/03/23 03:47:06;;;;;;;54.03;29.80;;;;;;;;;;5058852;28;40724;-78
2021/03/23 03:49:32;;;;;;;51.80;29.07;;;;;;;;;;5063993;28;38236;-78
2021/03/23 03:51:59;;;;;;;49.30;27.17;;;;;;;;;;5061618;28;37820;-78
2021/03/23 03:54:25;;;;;;;50.47;25.63;;;;;;;;;;5063712;28;36027;-79
2021/03/23 03:56:52;;;;;;;51.43;25.60;;;;;;;;;;5067419;28;39102;-78
2021/03/23 03:59:18;;;;;;;45.07;25.70;;;;;;;;;;5071570;28;38195;-78
2021/03/23 04:01:44;;;;;;;48.53;26.13;;;;;;;;;;5075686;28;37788;-78
2021/03/23 04:04:11;;;;;;;45.13;24.70;;;;;;;;;;5062125;27;37279;-78
2021/03/23 04:06:38;;;;;;;58.10;29.00;;;;;;;;;;5053705;28;38874;-78
2021/03/23 04:09:04;;;;;;;49.50;26.33;;;;;;;;;;5059239;28;37748;-78
2021/03/23 04:11:32;;;;;;;53.50;28.87;;;;;;;;;;5073724;28;38808;-78
2021/03/23 04:13:59;;;;;;;49.07;26.53;;;;;;;;;;5077014;28;37676;-78
2021/03/23 04:16:25;;;;;;;50.60;27.80;;;;;;;;;;5073061;28;37845;-78
2021/03/23 04:18:52;;;;;;;48.50;26.93;;;;;;;;;;5083885;28;38454;-78
2021/03/23 04:21:18;;;;;;;49.70;27.40;;;;;;;;;;5066999;28;37920;-79
2021/03/23 04:23:44;;;;;;;51.97;29.20;;;;;;;;;;5075382;28;36390;-78
2021/03/23 04:26:13;;;;;;;58.83;30.87;;;;;;;;;;5076543;28;38631;-78
2021/03/23 04:28:39;;;;;;;81.37;36.33;;;;;;;;;;5074882;28;37299;-78
2021/03/23 04:31:06;;;;;;;68.60;35.93;;;;;;;;;;5077102;28;38639;-78
2021/03/23 04:33:32;;;;;;;70.53;35.40;;;;;;;;;;5073683;28;38519;-78
2021/03/23 04:36:01;;;;;;;80.77;38.73;;;;;;;;;;5076784;28;39620;-78
2021/03/23 04:38:29;;;;;;;79.67;39.93;;;;;;;;;;5060802;28;39357;-78
2021/03/23 04:40:56;;;;;;;82.67;40.00;;;;;;;;;;5058675;28;37419;-78
2021/03/23 04:43:26;;;;;;;99.07;45.87;;;;;;;;;;5061947;28;36848;-78
2021/03/23 04:45:53;;;;;;;93.17;42.43;;;;;;;;;;5062713;28;40078;-78
2021/03/23 04:48:20;;;;;;;92.37;42.33;;;;;;;;;;5059321;28;40229;-78
2021/03/23 04:50:46;;;;;;;91.90;41.87;;;;;;;;;;5055537;28;39010;-79
2021/03/23 04:53:17;;;;;;;82.70;40.40;;;;;;;;;;5075489;28;36125;-78
2021/03/23 04:55:44;;;;;;;90.73;42.93;;;;;;;;;;5062086;28;40059;-78
2021/03/23 04:58:10;;;;;;;86.00;40.23;;;;;;;;;;5061850;28;38834;-78
2021/03/23 05:00:36;;;;;;;93.20;42.50;;;;;;;;;;5059791;28;38657;-78
2021/03/23 05:03:03;;;;;;;85.07;41.47;;;;;;;;;;5060338;28;38237;-78
2021/03/23 05:05:29;;;;;;;88.50;41.00;;;;;;;;;;5064495;28;38759;-78
2021/03/23 05:07:56;;;;;;;83.13;43.03;;;;;;;;;;5064186;28;36969;-78
2021/03/23 05:10:22;;;;;;;82.20;40.23;;;;;;;;;;5059571;28;40082;-78
2021/03/23 05:12:48;;;;;;;80.90;40.73;;;;;;;;;;5063839;28;36673;-78
2021/03/23 05:15:15;;;;;;;87.70;41.97;;;;;;;;;;5064170;28;38857;-78
2021/03/23 05:17:41;;;;;;;76.70;39.70;;;;;;;;;;5068428;28;39523;-78
2021/03/23 05:20:08;;;;;;;81.53;39.20;;;;;;;;;;5067529;28;39413;-78
2021/03/23 05:22:34;;;;;;;86.03;42.70;;;;;;;;;;5064419;28;36242;-79
2021/03/23 05:25:01;;;;;;;82.27;42.37;;;;;;;;;;5066389;28;39741;-78
2021/03/23 05:27:27;;;;;;;84.63;41.13;;;;;;;;;;5077634;28;38235;-78
2021/03/23 05:29:54;;;;;;;81.90;41.47;;;;;;;;;;5061472;28;37274;-78
2021/03/23 05:32:20;;;;;;;78.57;41.10;;;;;;;;;;5061352;28;37062;-79
2021/03/23 05:34:46;;;;;;;89.77;43.23;;;;;;;;;;5065077;28;38487;-79
2021/03/23 05:37:13;;;;;;;81.40;43.37;;;;;;;;;;5063237;28;40281;-78
2021/03/23 05:39:41;;;;;;;80.57;42.03;;;;;;;;;;5066814;28;39663;-79
2021/03/23 05:42:12;;;;;;;88.70;42.70;;;;;;;;;;5066628;28;37725;-78
2021/03/23 05:44:48;;;;;;;78.57;39.73;;;;;;;;;;5064166;28;37692;-78
2021/03/23 05:47:16;;;;;;;96.10;43.80;;;;;;;;;;5071103;27;38828;-78
2021/03/23 05:49:52;;;;;;;81.80;42.03;;;;;;;;;;5075028;28;38760;-79
2021/03/23 05:52:18;;;;;;;81.03;41.77;;;;;;;;;;5069027;28;36442;-78
2021/03/23 05:54:48;;;;;;;86.70;43.73;;;;;;;;;;5063075;28;38349;-78
2021/03/23 05:57:20;;;;;;;93.07;45.40;;;;;;;;;;5061045;28;37851;-79
2021/03/23 05:59:57;;;;;;;88.10;43.30;;;;;;;;;;5059100;28;38250;-78
2021/03/23 06:02:26;;;;;;;89.40;42.97;;;;;;;;;;5065216;27;36249;-79
2021/03/23 06:05:02;;;;;;;80.63;41.13;;;;;;;;;;5069011;28;38409;-79
2021/03/23 06:07:35;;;;;;;82.67;42.10;;;;;;;;;;5064532;28;47207;-78
2021/03/23 06:10:02;;;;;;;79.50;41.93;;;;;;;;;;5064231;28;38955;-79
2021/03/23 06:12:33;;;;;;;79.87;43.47;;;;;;;;;;5060687;28;49004;-78
2021/03/23 06:15:03;;;;;;;81.03;40.63;;;;;;;;;;5064296;28;37895;-78
2021/03/23 06:17:39;;;;;;;80.10;41.43;;;;;;;;;;5065448;28;47077;-79
2021/03/23 06:20:08;;;;;;;86.17;42.33;;;;;;;;;;5060078;28;39670;-78
2021/03/23 06:22:54;;;;;;;75.13;38.57;;;;;;;;;;5069307;28;36663;-78
2021/03/23 06:25:37;;;;;;;87.77;43.27;;;;;;;;;;5058767;28;39186;-78
2021/03/23 06:28:04;;;;;;;79.37;41.60;;;;;;;;;;5064469;28;38607;-78
2021/03/23 06:30:50;;;;;;;80.07;40.80;;;;;;;;;;5063047;28;39892;-78
2021/03/23 06:33:20;;;;;;;73.33;40.37;;;;;;;;;;5082038;28;38066;-78
2021/03/23 06:35:48;;;;;;;84.17;40.70;;;;;;;;;;5074381;28;39000;-78
2021/03/23 06:38:22;;;;;;;82.37;43.20;;;;;;;;;;5063662;28;39297;-79
2021/03/23 06:41:07;;;;;;;90.83;44.97;;;;;;;;;;5070919;28;38710;-79
2021/03/23 06:43:34;;;;;;;77.33;40.07;;;;;;;;;;5070920;28;47110;-79
2021/03/23 06:46:02;;;;;;;89.53;43.87;;;;;;;;;;5065252;28;39698;-78
2021/03/23 06:48:31;;;;;;;75.07;38.90;;;;;;;;;;5058539;28;47967;-78
2021/03/23 06:51:22;;;;;;;76.20;41.07;;;;;;;;;;5065836;28;37513;-79
2021/03/23 06:53:48;;;;;;;82.63;40.00;;;;;;;;;;5062881;28;48843;-79
2021/03/23 06:56:22;;;;;;;77.40;40.07;;;;;;;;;;5061533;28;38086;-77
2021/03/23 06:59:05;;;;;;;75.13;39.17;;;;;;;;;;5059146;28;38752;-78
2021/03/23 07:01:31;;;;;;;;;;;;;;;;;;5057819;28;47580;-79
2021/03/23 07:04:15;;;;;;;84.17;39.23;;;;;;;;;;5064761;28;38949;-79
2021/03/23 07:06:41;;;;;;;75.43;39.73;;;;;;;;;;5061678;28;47412;-79
2021/03/23 07:09:10;;;;;;;82.80;40.10;;;;;;;;;;5058297;28;39427;-79
2021/03/23 07:11:57;;;;;;;69.17;36.67;;;;;;;;;;5063043;28;38447;-80
2021/03/23 07:14:38;;;;;;;75.33;38.57;;;;;;;;;;5066365;28;38098;-80
2021/03/23 07:17:14;;;;;;;75.37;38.37;;;;;;;;;;5067072;28;39052;-79
2021/03/23 07:19:52;;;;;;;75.23;38.90;;;;;;;;;;5066018;28;39114;-79
2021/03/23 07:22:30;;;;;;;82.67;38.80;;;;;;;;;;5065120;28;39729;-79
2021/03/23 07:24:58;;;;;;;72.30;36.90;;;;;;;;;;5061771;28;37770;-79
2021/03/23 07:27:27;;;;;;;77.07;37.27;;;;;;;;;;5078996;28;37886;-79
2021/03/23 07:30:11;;;;;;;73.43;37.03;;;;;;;;;;5062068;28;39095;-79
2021/03/23 07:32:42;;;;;;;68.20;36.07;;;;;;;;;;5066026;28;48423;-80
2021/03/23 07:35:13;;;;;;;78.70;37.87;;;;;;;;;;5063631;28;37897;-80
2021/03/23 07:38:00;;;;;;;67.97;36.13;;;;;;;;;;5066535;28;40668;-80
2021/03/23 07:40:30;;;;;;;68.27;35.47;;;;;;;;;;5057066;28;38687;-80
2021/03/23 07:43:19;;;;;;;70.87;34.80;;;;;;;;;;5066654;28;39380;-78
2021/03/23 07:45:54;;;;;;;65.93;34.23;;;;;;;;;;5059934;28;49004;-78
2021/03/23 07:48:24;;;;;;;64.13;35.17;;;;;;;;;;5055720;28;37946;-78
2021/03/23 07:50:55;;;;;;;63.20;33.67;;;;;;;;;;5062519;28;39520;-79
2021/03/23 07:53:34;;;;;;;59.13;33.47;;;;;;;;;;5057565;28;37700;-78
2021/03/23 07:56:24;;;;;;;59.00;33.37;;;;;;;;;;5061123;28;38293;-78
2021/03/23 07:59:02;;;;;;;63.17;35.03;;;;;;;;;;5059467;28;47233;-79
2021/03/23 08:01:28;;;;;;;70.63;36.00;;;;;;;;;;5057421;28;47319;-79
2021/03/23 08:04:09;;;;;;;57.87;33.20;;;;;;;;;;5061291;28;39139;-79
2021/03/23 08:06:41;;;;;;;61.73;34.27;;;;;;;;;;5046100;28;47291;-79
2021/03/23 08:09:11;;;;;;;55.78;29.50;;;;;;;;;;5063577;28;39964;-78
2021/03/23 08:11:46;;;;;;;54.33;30.27;;;;;;;;;;5064555;28;39322;-79
2021/03/23 08:14:20;;;;;;;52.43;30.83;;;;;;;;;;5063373;28;40303;-80
2021/03/23 08:17:22;;;;;;;50.90;30.23;;;;;;;;;;5064372;28;38626;-78
2021/03/23 08:19:58;;;;;;;56.73;31.97;;;;;;;;;;5004309;28;48652;-78
2021/03/23 08:22:43;;;;;;;51.10;30.73;;;;;;;;;;5059224;28;38418;-80
2021/03/23 08:25:21;;;;;;;52.97;29.63;;;;;;;;;;5063486;28;40313;-77
2021/03/23 08:27:51;;;;;;;56.40;31.30;;;;;;;;;;5062576;28;37056;-77
2021/03/23 08:30:30;;;;;;;50.77;28.83;;;;;;;;;;5065586;28;37981;-77
2021/03/23 08:33:03;;;;;;;55.07;30.43;;;;;;;;;;5054582;28;38843;-78
2021/03/23 08:35:50;;;;;;;57.67;30.42;;;;;;;;;;5062849;28;48200;-79
2021/03/23 08:38:21;;;;;;;50.17;28.50;;;;;;;;;;5064533;28;35882;-77
2021/03/23 08:40:57;;;;;;;52.42;29.83;;;;;;;;;;5071108;28;38846;-77
2021/03/23 08:43:35;;;;;;;53.50;29.33;;;;;;;;;;5081946;28;38065;-76
2021/03/23 08:46:04;;;;;;;48.83;27.30;;;;;;;;;;5074905;28;37591;-77
2021/03/23 08:48:49;;;;;;;50.93;29.33;;;;;;;;;;5057474;28;47341;-76
2021/03/23 08:51:19;;;;;;;56.10;29.58;;;;;;;;;;5061045;28;38108;-77
2021/03/23 08:53:47;;;;;;;52.50;27.83;;;;;;;;;;5069765;28;39069;-78
2021/03/23 08:56:13;;;;;;;54.70;28.98;;;;;;;;;;5072034;28;39513;-77
2021/03/23 08:58:42;;;;;;;50.20;28.55;;;;;;;;;;5072981;27;37394;-77
2021/03/23 09:01:27;;;;;;;52.80;28.80;;;;;;;;;;5067073;28;39192;-76
2021/03/23 09:04:14;;;;;;;49.10;28.08;;;;;;;;;;5072043;28;38696;-77
2021/03/23 09:06:46;;;;;;;49.40;29.60;;;;;;;;;;5043527;28;48174;-77
2021/03/23 09:09:20;;;;;;;47.30;27.92;;;;;;;;;;5084379;28;37422;-76
2021/03/23 09:11:52;;;;;;;53.60;28.17;;;;;;;;;;5071149;28;38290;-76
2021/03/23 09:14:19;;;;;;;;;;;;;;;;;;5081817;28;37856;-76
2021/03/23 09:16:51;;;;;;;45.47;27.95;;;;;;;;;;5074882;28;39751;-76
2021/03/23 09:19:35;;;;;;;46.95;28.55;;;;;;;;;;5085363;28;36068;-76
2021/03/23 09:22:01;;;;;;;48.47;27.38;;;;;;;;;;5070524;28;36069;-76
2021/03/23 09:24:29;;;;;;;46.60;27.58;;;;;;;;;;5066190;28;48746;-76
2021/03/23 09:26:56;;;;;;;48.03;27.60;;;;;;;;;;5063918;28;37977;-76
2021/03/23 09:29:25;;;;;;;51.85;29.25;;;;;;;;;;5066805;28;37486;-75
2021/03/23 09:31:52;;;;;;;46.13;27.38;;;;;;;;;;5067191;28;39555;-77
2021/03/23 09:34:37;;;;;;;47.10;28.30;;;;;;;;;;5076921;28;38444;-75
2021/03/23 09:37:21;;;;;;;50.33;27.90;;;;;;;;;;5066693;28;39534;-76
2021/03/23 09:39:47;;;;;;;48.47;29.02;;;;;;;;;;5060141;27;37426;-76
2021/03/23 09:42:17;;;;;;;43.95;26.30;;;;;;;;;;5072240;28;39087;-76
2021/03/23 09:44:46;;;;;;;47.40;27.77;;;;;;;;;;5070477;28;37900;-75
2021/03/23 09:47:31;;;;;;;45.17;28.55;;;;;;;;;;5063935;28;37218;-77
2021/03/23 09:49:58;;;;;;;44.28;28.05;;;;;;;;;;5071465;28;36811;-77
2021/03/23 09:52:28;;;;;;;46.20;28.00;;;;;;;;;;5075733;28;39839;-77
2021/03/23 09:54:57;;;;;;;46.75;28.73;;;;;;;;;;5078279;28;37932;-78
2021/03/23 09:57:25;;;;;;;51.72;30.83;;;;;;;;;;5071602;28;38412;-77
2021/03/23 09:59:53;;;;;;;47.93;29.33;;;;;;;;;;5069698;28;36860;-77
2021/03/23 10:02:20;;;;;;;49.78;30.48;;;;;;;;;;5081852;28;38253;-77
2021/03/23 10:04:47;;;;;;;51.95;31.45;;;;;;;;;;5068040;28;38609;-77
2021/03/23 10:07:28;;;;;;;48.78;28.65;;;;;;;;;;5075876;27;38389;-77
2021/03/23 10:10:06;;;;;;;49.07;28.50;;;;;;;;;;5069191;28;37923;-77
2021/03/23 10:12:33;;;;;;;53.00;29.13;;;;;;;;;;5063313;28;47319;-77
2021/03/23 10:14:59;;;;;;;49.42;28.88;;;;;;;;;;5058447;28;39239;-78
2021/03/23 10:17:27;;;;;;;49.67;29.17;;;;;;;;;;5063949;28;37391;-77
2021/03/23 10:19:58;;;;;;;46.40;29.73;;;;;;;;;;5071362;28;37033;-79
2021/03/23 10:22:31;;;;;;;63.05;32.03;;;;;;;;;;5067325;27;39168;-77
2021/03/23 10:24:59;;;;;;;47.45;29.10;;;;;;;;;;5063701;28;37811;-77
2021/03/23 10:27:43;;;;;;;48.83;30.58;;;;;;;;;;5052805;28;38274;-77
2021/03/23 10:30:11;;;;;;;49.85;31.00;;;;;;;;;;5050421;28;36123;-77
2021/03/23 10:32:42;;;;;;;47.33;29.35;;;;;;;;;;5069378;28;38726;-79
2021/03/23 10:35:13;;;;;;;48.10;30.40;;;;;;;;;;5065685;28;38991;-77
2021/03/23 10:37:40;;;;;;;56.60;34.40;;;;;;;;;;5064543;28;38622;-77
2021/03/23 10:40:07;;;;;;;47.22;29.85;;;;;;;;;;5047571;28;37802;-78
2021/03/23 10:42:35;;;;;;;52.45;31.13;;;;;;;;;;5060594;28;38996;-78
2021/03/23 10:45:16;;;;;;;48.20;31.77;;;;;;;;;;5067840;28;38997;-78
2021/03/23 10:47:47;;;;;;;57.05;34.85;;;;;;;;;;5067570;28;47209;-77
2021/03/23 10:50:24;;;;;;;51.63;32.87;;;;;;;;;;5062650;28;36075;-77
2021/03/23 10:52:51;;;;;;;50.58;31.65;;;;;;;;;;5056776;28;39820;-77
2021/03/23 10:55:33;;;;;;;52.22;31.70;;;;;;;;;;5071513;28;39138;-77
2021/03/23 10:58:14;;;;;;;54.15;32.33;;;;;;;;;;5058514;27;39429;-77
2021/03/23 11:00:41;;;;;;;48.13;31.15;;;;;;;;;;5055117;28;47036;-77
2021/03/23 11:03:15;;;;;;;41.25;27.42;;;;;;;;;;5064682;28;40219;-76
2021/03/23 11:05:49;;;;;;;52.50;29.90;;;;;;;;;;5072374;28;39528;-77
2021/03/23 11:08:15;;;;;;;48.35;29.77;;;;;;;;;;5065068;27;39502;-77
2021/03/23 11:10:43;;;;;;;47.92;29.20;;;;;;;;;;5065020;28;36106;-76
2021/03/23 11:13:13;;;;;;;47.13;28.80;;;;;;;;;;5062889;28;39196;-76
2021/03/23 11:15:41;;;;;;;43.67;27.13;;;;;;;;;;5065790;28;39675;-77
2021/03/23 11:18:16;;;;;;;36.92;25.02;;;;;;;;;;5066934;27;38701;-77
2021/03/23 11:20:43;;;;;;;39.63;24.88;;;;;;;;;;5068464;28;37370;-76
2021/03/23 11:23:24;;;;;;;38.45;24.83;;;;;;;;;;5062766;28;39284;-76
2021/03/23 11:25:51;;;;;;;35.22;24.40;;;;;;;;;;5057045;28;40221;-76
2021/03/23 11:28:18;;;;;;;42.90;25.48;;;;;;;;;;5064251;27;37215;-77
2021/03/23 11:30:45;;;;;;;33.70;23.08;;;;;;;;;;5065932;28;36315;-77
2021/03/23 11:33:12;;;;;;;38.90;24.52;;;;;;;;;;5065749;27;39782;-76
2021/03/23 11:35:39;;;;;;;40.97;24.55;;;;;;;;;;5064517;28;38891;-77
2021/03/23 11:38:05;;;;;;;36.67;24.80;;;;;;;;;;5064388;28;38822;-75
2021/03/23 11:40:32;;;;;;;38.47;24.35;;;;;;;;;;5058727;28;37441;-77
2021/03/23 11:42:58;;;;;;;33.13;22.80;;;;;;;;;;5064012;28;39159;-76
2021/03/23 11:45:33;;;;;;;38.08;25.88;;;;;;;;;;5064303;28;39681;-76
2021/03/23 11:48:04;;;;;;;45.15;26.15;;;;;;;;;;5065854;28;39516;-76
2021/03/23 11:50:32;;;;;;;43.17;26.20;;;;;;;;;;5062871;28;49431;-77
2021/03/23 11:52:59;;;;;;;35.38;25.42;;;;;;;;;;5061150;28;38275;-76
2021/03/23 11:55:30;;;;;;;38.75;25.83;;;;;;;;;;5070931;28;38886;-74
2021/03/23 11:57:56;;;;;;;38.28;26.13;;;;;;;;;;5074396;28;37709;-76
2021/03/23 12:00:29;;;;;;;41.22;27.10;;;;;;;;;;5058784;28;36824;-75
2021/03/23 12:02:56;;;;;;;40.25;26.40;;;;;;;;;;5064030;27;38963;-75
2021/03/23 12:05:22;;;;;;;36.17;25.55;;;;;;;;;;5058994;28;37804;-76
2021/03/23 12:08:07;;;;;;;37.40;25.08;;;;;;;;;;5056243;28;38885;-74
2021/03/23 12:10:37;;;;;;;34.28;23.73;;;;;;;;;;5060789;28;48534;-75
2021/03/23 12:13:10;;;;;;;33.53;24.38;;;;;;;;;;5073617;28;39714;-75
2021/03/23 12:15:41;;;;;;;32.20;22.48;;;;;;;;;;5059152;28;40898;-75
2021/03/23 12:18:11;;;;;;;34.63;23.20;;;;;;;;;;5059497;28;39428;-77
2021/03/23 12:20:38;;;;;;;31.88;22.08;;;;;;;;;;5057499;28;37364;-76
2021/03/23 12:23:05;;;;;;;30.33;20.85;;;;;;;;;;5056352;28;40243;-76
2021/03/23 12:25:32;;;;;;;30.13;20.20;;;;;;;;;;5055745;28;39159;-76
2021/03/23 12:27:58;;;;;;;30.85;19.98;;;;;;;;;;5051042;28;38365;-76
2021/03/23 12:30:24;;;;;;;25.40;19.13;;;;;;;;;;5060016;28;36857;-77
2021/03/23 12:32:54;;;;;;;33.22;20.27;;;;;;;;;;5061439;28;39377;-76
2021/03/23 12:35:23;;;;;;;27.48;18.35;;;;;;;;;;5065873;28;20226;-77
2021/03/23 12:37:52;;;;;;;28.55;18.02;;;;;;;;;;5057627;28;39451;-76
2021/03/23 12:40:20;;;;;;;25.63;18.27;;;;;;;;;;5059984;28;36007;-78
2021/03/23 12:42:46;;;;;;;30.67;19.85;;;;;;;;;;5059566;28;37876;-76
2021/03/23 12:45:19;;;;;;;26.80;18.85;;;;;;;;;;5059615;28;37508;-79
2021/03/23 12:47:46;;;;;;;30.52;19.52;;;;;;;;;;5060802;28;38328;-76
2021/03/23 12:50:12;;;;;;;31.05;18.38;;;;;;;;;;5055688;28;35842;-77
2021/03/23 12:52:39;;;;;;;29.50;19.13;;;;;;;;;;5063745;28;38107;-79
2021/03/23 12:55:05;;;;;;;26.40;18.15;;;;;;;;;;5052431;28;40011;-78
2021/03/23 12:57:39;;;;;;;35.90;19.25;;;;;;;;;;5054249;28;39128;-76
2021/03/23 13:00:25;;;;;;;28.42;18.92;;;;;;;;;;5051314;28;37059;-76
2021/03/23 13:02:52;;;;;;;26.92;19.23;;;;;;;;;;5053980;28;40137;-77
2021/03/23 13:05:19;;;;;;;28.67;19.23;;;;;;;;;;5053575;28;39692;-77
2021/03/23 13:07:45;;;;;;;27.00;19.13;;;;;;;;;;5056954;28;37191;-77
2021/03/23 13:10:38;;;;;;;26.08;18.83;;;;;;;;;;5056754;28;36472;-80
2021/03/23 13:13:19;;;;;;;27.33;18.95;;;;;;;;;;5063461;28;38119;-77
2021/03/23 13:15:46;;;;;;;30.73;19.48;;;;;;;;;;5061871;28;39338;-76
2021/03/23 13:18:13;;;;;;;29.92;18.33;;;;;;;;;;5065038;28;37422;-77
2021/03/23 13:20:40;;;;;;;29.88;19.60;;;;;;;;;;5057689;28;37335;-77
2021/03/23 13:23:06;;;;;;;33.17;18.75;;;;;;;;;;5057029;28;38712;-77
2021/03/23 13:25:37;;;;;;;30.42;19.70;;;;;;;;;;5061577;28;39442;-77
2021/03/23 13:28:06;;;;;;;27.17;18.50;;;;;;;;;;5059499;28;37420;-77
2021/03/23 13:30:34;;;;;;;29.15;19.25;;;;;;;;;;5082074;28;37386;-77
2021/03/23 13:33:02;;;;;;;27.63;19.38;;;;;;;;;;5055430;28;40253;-78
2021/03/23 13:35:29;;;;;;;30.58;18.58;;;;;;;;;;5059806;28;48828;-78
2021/03/23 13:37:57;;;;;;;35.10;20.70;;;;;;;;;;5060034;28;39620;-78
2021/03/23 13:40:29;;;;;;;27.33;19.20;;;;;;;;;;5054292;28;37854;-78
2021/03/23 13:42:58;;;;;;;32.78;20.00;;;;;;;;;;5061057;28;37773;-78
2021/03/23 13:45:34;;;;;;;29.27;20.35;;;;;;;;;;5060528;28;38739;-77
2021/03/23 13:48:00;;;;;;;34.50;22.38;;;;;;;;;;5055678;28;38874;-78
2021/03/23 13:50:28;;;;;;;32.33;20.45;;;;;;;;;;5050565;28;46453;-79
2021/03/23 13:53:03;;;;;;;30.52;20.45;;;;;;;;;;5057944;28;39728;-77
2021/03/23 13:55:36;;;;;;;33.72;21.05;;;;;;;;;;5059626;28;47617;-78
2021/03/23 13:58:03;;;;;;;31.85;20.45;;;;;;;;;;5071779;28;37647;-77
2021/03/23 14:00:38;;;;;;;39.47;22.42;;;;;;;;;;5057681;28;37147;-77
2021/03/23 14:03:05;;;;;;;33.90;21.77;;;;;;;;;;5070929;28;38224;-76
2021/03/23 14:05:31;;;;;;;31.95;21.17;;;;;;;;;;5061733;28;39431;-76
2021/03/23 14:07:59;;;;;;;34.50;21.67;;;;;;;;;;5060075;28;39544;-76
2021/03/23 14:10:27;;;;;;;35.72;23.70;;;;;;;;;;5049292;28;35820;-76
2021/03/23 14:12:56;;;;;;;34.00;23.58;;;;;;;;;;5074987;28;36390;-76
2021/03/23 14:15:23;;;;;;;38.05;23.50;;;;;;;;;;5057270;28;39166;-76
2021/03/23 14:17:49;;;;;;;34.95;23.85;;;;;;;;;;5060758;28;40862;-76
2021/03/23 14:20:16;;;;;;;33.55;23.85;;;;;;;;;;5058145;28;35998;-76
2021/03/23 14:22:43;;;;;;;38.83;25.38;;;;;;;;;;5056966;28;38977;-76
2021/03/23 14:25:18;;;;;;;39.33;27.10;;;;;;;;;;5055946;28;39526;-75
2021/03/23 14:27:45;;;;;;;37.10;25.95;;;;;;;;;;5052328;28;38508;-75
2021/03/23 14:30:16;;;;;;;47.63;30.70;;;;;;;;;;5065082;28;37286;-74
2021/03/23 14:32:42;;;;;;;40.70;28.70;;;;;;;;;;5061036;28;39854;-76
2021/03/23 14:35:09;;;;;;;44.83;29.90;;;;;;;;;;5057361;28;39999;-75